Time;durP1;ratioP1;P1;durP2;ratioP2;P2;SDS_P1;SDS_P2;PMS_P1;PMS_P2;Temp;Humidity;BMP_temperature;BMP_pressure;BME280_temperature;BME280_humidity;BME280_pressure;Samples;Min_cycle;Max_cycle;Signal;HPM_P1;HPM_P2
2020/12/10 00:01:03;;;;;;;51.67;19.27;;;;;;;-5.55;68.43;100503.62;130131;1093;23219;-64
2020/12/10 00:03:31;;;;;;;30.07;11.63;;;;;;;-5.59;69.05;100489.77;130225;1093;23249;-63
2020/12/10 00:05:58;;;;;;;91.43;25.00;;;;;;;-5.62;69.04;100486.52;130080;1092;23214;-63
2020/12/10 00:08:26;;;;;;;24.57;10.63;;;;;;;-5.66;68.69;100483.31;130224;1098;23188;-64
2020/12/10 00:10:55;;;;;;;105.40;28.13;;;;;;;-5.72;68.83;100486.47;130149;1093;23165;-63
2020/12/10 00:13:23;;;;;;;31.13;10.83;;;;;;;-5.73;68.85;100498.05;130212;1098;23182;-63
2020/12/10 00:15:53;;;;;;;67.97;18.83;;;;;;;-5.78;68.48;100492.32;128897;1093;23372;-64
2020/12/10 00:18:21;;;;;;;32.07;12.13;;;;;;;-5.81;68.34;100487.27;130080;1093;23253;-63
2020/12/10 00:20:48;;;;;;;88.97;27.37;;;;;;;-5.84;68.41;100483.05;130283;1098;23259;-63
2020/12/10 00:23:16;;;;;;;31.17;11.53;;;;;;;-5.86;69.50;100479.68;130064;1091;23185;-63
2020/12/10 00:25:45;;;;;;;24.73;9.87;;;;;;;-5.87;69.51;100477.16;130248;1093;23189;-63
2020/12/10 00:28:16;;;;;;;19.07;10.07;;;;;;;-5.91;68.89;100470.45;130134;1093;23166;-63
2020/12/10 00:30:48;;;;;;;27.57;11.77;;;;;;;-5.94;69.66;100476.88;130224;1093;23885;-63
2020/12/10 00:33:15;;;;;;;153.60;43.57;;;;;;;-5.97;70.23;100473.64;130076;1092;23161;-63
2020/12/10 00:35:43;;;;;;;26.53;10.33;;;;;;;-6.00;68.83;100472.08;130270;1092;23207;-62
2020/12/10 00:38:10;;;;;;;45.90;16.00;;;;;;;-6.00;68.74;100476.54;130097;1093;23225;-63
2020/12/10 00:40:37;;;;;;;33.85;13.35;;;;;;;-6.01;69.40;100467.73;130236;1098;23157;-63
2020/12/10 00:43:05;;;;;;;48.40;18.00;;;;;;;-6.00;69.24;100474.73;130059;1093;24169;-63
2020/12/10 00:45:32;;;;;;;29.47;10.87;;;;;;;-6.02;69.12;100467.86;130240;1098;24114;-62
2020/12/10 00:48:00;;;;;;;25.63;11.53;;;;;;;-6.03;69.28;100471.48;130073;1093;23174;-63
2020/12/10 00:50:28;;;;;;;19.90;9.50;;;;;;;-6.08;70.00;100463.94;130250;1093;24162;-64
2020/12/10 00:52:56;;;;;;;31.43;12.13;;;;;;;-6.08;69.40;100459.47;130082;1093;23217;-63
2020/12/10 00:55:26;;;;;;;57.67;16.97;;;;;;;-6.09;69.90;100457.79;130258;1092;23269;-63
2020/12/10 00:57:57;;;;;;;22.00;8.93;;;;;;;-6.08;70.38;100443.56;130106;1095;23162;-63
2020/12/10 01:00:26;;;;;;;24.90;8.60;;;;;;;-6.08;70.26;100451.52;130277;1093;23242;-64
2020/12/10 01:02:53;;;;;;;18.00;8.13;;;;;;;-6.09;70.11;100448.98;130177;1093;24095;-63
2020/12/10 01:05:22;;;;;;;18.67;9.30;;;;;;;-6.09;69.71;100455.14;130192;1093;23243;-62
2020/12/10 01:07:49;;;;;;;23.47;9.97;;;;;;;-6.12;70.42;100458.04;130216;1092;23170;-63
2020/12/10 01:10:19;;;;;;;34.10;13.13;;;;;;;-6.12;69.68;100455.39;130119;1093;23222;-62
2020/12/10 01:12:47;;;;;;;26.97;8.73;;;;;;;-6.12;70.44;100458.04;130242;1092;23196;-63
2020/12/10 01:15:14;;;;;;;36.80;14.17;;;;;;;-6.14;69.81;100459.13;130078;1093;23155;-63
2020/12/10 01:17:44;;;;;;;28.27;11.17;;;;;;;-6.15;70.29;100460.09;130237;1098;23235;-62
2020/12/10 01:20:11;;;;;;;25.37;9.73;;;;;;;-6.16;69.80;100450.45;130097;1092;23155;-63
2020/12/10 01:22:41;;;;;;;37.20;13.57;;;;;;;-6.19;70.29;100456.86;130261;1093;23262;-63
2020/12/10 01:25:09;;;;;;;39.43;12.17;;;;;;;-6.17;69.76;100456.73;130097;1092;23263;-63
2020/12/10 01:27:37;;;;;;;30.70;12.10;;;;;;;-6.16;70.60;100453.95;130259;1091;24148;-63
2020/12/10 01:30:05;;;;;;;24.97;9.70;;;;;;;-6.13;70.18;100459.01;130103;1092;23161;-63
2020/12/10 01:32:39;;;;;;;25.73;11.50;;;;;;;-6.13;70.90;100440.44;130214;1092;23182;-64
2020/12/10 01:35:09;;;;;;;58.13;20.20;;;;;;;-6.12;70.64;100442.12;130124;1093;24714;-63
2020/12/10 01:37:40;;;;;;;45.80;17.13;;;;;;;-6.14;69.24;100448.52;130315;1093;23178;-62
2020/12/10 01:40:08;;;;;;;18.10;8.00;;;;;;;-6.15;70.18;100441.53;130107;1092;23226;-64
2020/12/10 01:42:36;;;;;;;19.63;10.07;;;;;;;-6.18;70.37;100434.67;130243;1093;23609;-62
2020/12/10 01:45:07;;;;;;;38.07;14.20;;;;;;;-6.19;70.37;100443.59;130108;1093;23215;-62
2020/12/10 01:47:38;;;;;;;17.53;7.67;;;;;;;-6.22;70.34;100441.22;130229;1093;23162;-62
2020/12/10 01:50:08;;;;;;;20.50;7.43;;;;;;;-6.24;70.58;100440.51;130110;1098;23239;-63
2020/12/10 01:52:37;;;;;;;28.77;10.77;;;;;;;-6.24;70.37;100447.62;130231;1093;23152;-63
2020/12/10 01:55:05;;;;;;;43.27;15.10;;;;;;;-6.25;70.98;100445.94;130119;1093;23256;-63
2020/12/10 01:57:37;;;;;;;33.57;11.97;;;;;;;-6.23;70.18;100449.30;125946;1098;28040;-64
2020/12/10 02:00:04;;;;;;;31.10;11.30;;;;;;;-6.24;70.58;100451.11;125921;1093;23467;-64
2020/12/10 02:02:39;;;;;;;29.63;10.77;;;;;;;-6.24;69.33;100463.53;125951;1092;23386;-63
2020/12/10 02:05:07;;;;;;;22.80;9.50;;;;;;;-6.26;70.84;100442.44;130275;1092;23182;-62
2020/12/10 02:07:34;;;;;;;24.87;8.63;;;;;;;-6.26;69.96;100439.79;130116;1093;23196;-63
2020/12/10 02:10:15;;;;;;;18.53;8.60;;;;;;;-6.27;69.50;100438.10;130283;1093;23222;-63
2020/12/10 02:12:42;;;;;;;14.53;7.33;;;;;;;-6.27;70.45;100435.45;130066;1092;23165;-63
2020/12/10 02:15:09;;;;;;;13.33;6.97;;;;;;;-6.29;69.96;100428.59;130221;1093;23176;-63
2020/12/10 02:17:37;;;;;;;19.17;8.73;;;;;;;-6.31;70.87;100431.36;130112;1098;23228;-63
2020/12/10 02:20:05;;;;;;;17.27;8.10;;;;;;;-6.31;70.74;100430.52;130215;1093;23235;-64
2020/12/10 02:22:32;;;;;;;16.70;8.50;;;;;;;-6.33;70.81;100428.00;130132;1093;23211;-63
2020/12/10 02:24:59;;;;;;;15.10;6.83;;;;;;;-6.36;70.30;100412.38;130256;1093;23173;-63
2020/12/10 02:27:27;;;;;;;21.27;11.17;;;;;;;-6.39;70.40;100404.66;130091;1091;23175;-63
2020/12/10 02:29:54;;;;;;;19.00;8.63;;;;;;;-6.43;70.26;100403.23;130231;1093;23178;-63
2020/12/10 02:32:22;;;;;;;17.63;7.27;;;;;;;-6.46;70.28;100401.67;130077;1091;23222;-63
2020/12/10 02:34:49;;;;;;;16.60;7.47;;;;;;;-6.49;71.37;100396.62;130224;1093;23780;-63
2020/12/10 02:37:17;;;;;;;17.87;7.80;;;;;;;-6.49;70.39;100395.81;130112;1098;23196;-59
2020/12/10 02:39:46;;;;;;;15.40;7.77;;;;;;;-6.52;71.19;100388.11;130234;1091;23166;-58
2020/12/10 02:42:14;;;;;;;14.03;6.60;;;;;;;-6.55;70.09;100391.84;130130;1098;23166;-59
2020/12/10 02:44:41;;;;;;;11.70;5.73;;;;;;;-6.54;70.32;100390.03;130196;1092;23161;-59
2020/12/10 02:47:12;;;;;;;20.30;6.80;;;;;;;-6.71;70.98;100364.09;130103;1091;24164;-58
2020/12/10 02:49:40;;;;;;;15.77;7.13;;;;;;;-6.58;70.53;100397.39;130482;1095;23166;-59
2020/12/10 02:52:07;;;;;;;17.00;7.03;;;;;;;-6.61;71.32;100378.25;130475;1090;23208;-59
2020/12/10 02:54:37;;;;;;;15.13;6.37;;;;;;;-6.60;70.35;100379.94;130503;1095;24191;-59
2020/12/10 02:57:04;;;;;;;19.87;7.33;;;;;;;-6.62;70.46;100380.06;130527;1089;23222;-58
2020/12/10 02:59:32;;;;;;;15.97;7.33;;;;;;;-6.64;71.39;100389.13;130386;1089;23218;-59
2020/12/10 03:01:59;;;;;;;16.23;7.57;;;;;;;-6.66;71.19;100389.25;130529;1095;23261;-59
2020/12/10 03:04:27;;;;;;;14.50;7.73;;;;;;;-6.68;71.00;100383.23;130317;1089;23179;-58
2020/12/10 03:06:55;;;;;;;16.13;6.40;;;;;;;-6.67;71.24;100382.27;127313;1095;23299;-64
2020/12/10 03:09:25;;;;;;;16.63;6.40;;;;;;;-6.66;71.75;100388.41;130380;1088;23179;-63
2020/12/10 03:11:53;;;;;;;14.73;6.37;;;;;;;-6.66;71.00;100385.76;130486;1089;23231;-63
2020/12/10 03:14:20;;;;;;;16.37;7.07;;;;;;;-6.66;71.80;100386.60;130402;1095;23200;-63
2020/12/10 03:16:49;;;;;;;12.07;6.20;;;;;;;-6.67;71.57;100382.27;130528;1090;23227;-63
2020/12/10 03:19:17;;;;;;;17.37;6.67;;;;;;;-6.65;70.60;100398.88;130373;1089;23163;-63
2020/12/10 03:21:44;;;;;;;11.13;6.03;;;;;;;-6.65;71.63;100393.59;130504;1095;23172;-63
2020/12/10 03:24:16;;;;;;;12.57;5.53;;;;;;;-6.64;71.71;100389.13;130371;1090;23311;-63
2020/12/10 03:26:44;;;;;;;17.33;6.60;;;;;;;-6.62;71.43;100390.66;130520;1095;24227;-63
2020/12/10 03:29:11;;;;;;;16.63;6.50;;;;;;;-6.62;70.75;100389.81;130420;1089;23205;-62
2020/12/10 03:31:39;;;;;;;11.47;5.63;;;;;;;-6.63;70.60;100383.67;130510;1089;23828;-63
2020/12/10 03:34:08;;;;;;;12.90;6.17;;;;;;;-6.65;70.66;100374.20;130377;1095;24251;-63
2020/12/10 03:36:55;;;;;;;15.27;6.97;;;;;;;-6.69;71.45;100372.76;130517;1088;23839;-62
2020/12/10 03:39:24;;;;;;;11.65;5.45;;;;;;;-6.72;71.56;100368.55;130382;1089;23293;-63
2020/12/10 03:41:54;;;;;;;14.50;6.97;;;;;;;-6.72;71.57;100367.70;130529;1095;23247;-62
2020/12/10 03:44:21;;;;;;;16.63;7.10;;;;;;;-6.74;71.12;100372.28;130427;1090;23174;-63
2020/12/10 03:46:49;;;;;;;15.33;6.47;;;;;;;-6.77;71.82;100363.62;130537;1095;23238;-62
2020/12/10 03:49:17;;;;;;;12.77;6.30;;;;;;;-6.79;71.75;100373.53;130528;1090;23239;-62
2020/12/10 03:51:44;;;;;;;14.93;7.40;;;;;;;-6.78;72.01;100366.42;130409;1089;24192;-62
2020/12/10 03:54:12;;;;;;;18.73;8.90;;;;;;;-6.76;72.08;100356.52;130548;1095;23170;-62
2020/12/10 03:56:41;;;;;;;15.20;6.17;;;;;;;-6.72;71.96;100360.59;130329;1090;23172;-63
2020/12/10 03:59:09;;;;;;;21.63;7.03;;;;;;;-6.70;72.12;100349.88;130526;1089;24087;-63
2020/12/10 04:01:37;;;;;;;15.57;6.87;;;;;;;-6.72;72.21;100352.66;130404;1090;23616;-62
2020/12/10 04:04:08;;;;;;;13.93;6.60;;;;;;;-6.69;71.81;100344.45;130495;1089;23352;-63
2020/12/10 04:06:35;;;;;;;15.70;6.83;;;;;;;-6.66;71.98;100340.72;130428;1089;23176;-61
2020/12/10 04:09:02;;;;;;;15.73;7.40;;;;;;;-6.67;72.43;100329.27;130535;1095;23202;-62
2020/12/10 04:11:32;;;;;;;21.87;7.87;;;;;;;-6.64;71.89;100320.23;130397;1089;23318;-63
2020/12/10 04:14:06;;;;;;;14.20;7.07;;;;;;;-6.66;72.02;100325.66;130570;1095;23128;-63
2020/12/10 04:16:34;;;;;;;18.47;7.93;;;;;;;-6.64;71.27;100320.23;130383;1089;23970;-63
2020/12/10 04:19:01;;;;;;;17.60;7.67;;;;;;;-6.66;71.41;100319.52;130522;1089;23199;-63
2020/12/10 04:21:34;;;;;;;16.57;7.83;;;;;;;-6.65;71.39;100315.89;130335;1090;23217;-62
2020/12/10 04:24:02;;;;;;;12.80;6.97;;;;;;;-6.67;72.30;100313.38;130500;1089;23219;-63
2020/12/10 04:26:30;;;;;;;16.43;7.67;;;;;;;-6.64;72.51;100333.48;130349;1090;23154;-62
2020/12/10 04:29:01;;;;;;;16.67;7.67;;;;;;;-6.61;71.75;100327.90;130535;1089;23154;-62
2020/12/10 04:31:35;;;;;;;15.93;7.97;;;;;;;-6.58;72.51;100323.19;130367;1090;23180;-63
2020/12/10 04:34:02;;;;;;;17.10;8.03;;;;;;;-6.53;72.45;100321.00;130527;1095;23170;-62
2020/12/10 04:36:32;;;;;;;17.50;7.80;;;;;;;-6.53;72.87;100328.95;130372;1088;23218;-65
2020/12/10 04:39:00;;;;;;;30.47;11.57;;;;;;;-6.53;72.13;100346.66;130550;1095;23171;-62
2020/12/10 04:41:30;;;;;;;39.40;15.37;;;;;;;-6.52;72.80;100327.14;130433;1090;23231;-63
2020/12/10 04:43:58;;;;;;;21.07;9.23;;;;;;;-6.48;71.91;100331.20;130511;1089;23168;-63
2020/12/10 04:46:31;;;;;;;31.80;9.87;;;;;;;-6.45;72.04;100325.64;130503;1095;23477;-62
2020/12/10 04:49:00;;;;;;;20.73;8.30;;;;;;;-6.43;72.44;100319.25;130522;1089;23211;-62
2020/12/10 04:51:27;;;;;;;16.30;10.20;;;;;;;-6.40;72.66;100319.95;130528;1090;23156;-63
2020/12/10 04:53:56;;;;;;;15.00;6.93;;;;;;;-6.41;71.69;100319.12;130373;1095;23222;-63
2020/12/10 04:56:23;;;;;;;28.47;8.70;;;;;;;-6.37;71.78;100320.55;130448;1090;23226;-63
2020/12/10 04:58:51;;;;;;;18.93;7.23;;;;;;;-6.36;71.78;100314.27;130377;1095;23226;-63
2020/12/10 05:01:19;;;;;;;30.83;12.77;;;;;;;-6.35;72.55;100301.86;130519;1090;23258;-62
2020/12/10 05:03:47;;;;;;;43.43;16.30;;;;;;;-6.32;72.59;100312.18;130362;1090;23146;-63
2020/12/10 05:06:15;;;;;;;20.10;10.87;;;;;;;-6.32;72.59;100313.02;130522;1095;23845;-63
2020/12/10 05:08:43;;;;;;;22.03;12.97;;;;;;;-6.31;72.72;100303.26;130380;1089;24561;-63
2020/12/10 05:11:11;;;;;;;30.40;13.05;;;;;;;-6.32;71.62;100307.72;130562;1095;23211;-63
2020/12/10 05:13:38;;;;;;;29.13;9.93;;;;;;;-6.28;71.80;100303.00;130368;1088;23157;-63
2020/12/10 05:16:22;;;;;;;36.97;13.20;;;;;;;-6.26;72.73;100309.86;128789;1090;23293;-63
2020/12/10 05:18:50;;;;;;;21.47;8.53;;;;;;;-6.22;72.32;100313.09;130367;1088;23199;-63
2020/12/10 05:21:17;;;;;;;20.60;9.47;;;;;;;-6.23;72.62;100317.55;130476;1090;23898;-63
2020/12/10 05:23:45;;;;;;;21.03;9.60;;;;;;;-6.22;72.35;100324.55;130366;1090;27232;-63
2020/12/10 05:26:15;;;;;;;23.40;10.83;;;;;;;-6.20;71.73;100330.53;130507;1096;23230;-63
2020/12/10 05:28:44;;;;;;;17.70;9.50;;;;;;;-6.19;72.49;100340.17;130342;1090;24155;-63
2020/12/10 05:31:13;;;;;;;22.10;8.73;;;;;;;-6.19;71.85;100336.67;130500;1089;23163;-63
2020/12/10 05:33:52;;;;;;;37.17;12.93;;;;;;;-6.19;72.68;100341.98;130329;1089;24079;-63
2020/12/10 05:36:28;;;;;;;24.73;9.53;;;;;;;-6.20;72.78;100335.83;130510;1089;23152;-63
2020/12/10 05:39:04;;;;;;;14.83;7.43;;;;;;;-6.19;72.74;100334.02;130363;1095;23459;-63
2020/12/10 05:41:32;;;;;;;21.50;8.57;;;;;;;-6.18;72.13;100341.85;130486;1090;23250;-63
2020/12/10 05:44:20;;;;;;;16.73;9.97;;;;;;;-6.15;73.15;100340.75;130394;1088;23878;-63
2020/12/10 05:46:53;;;;;;;34.03;14.18;;;;;;;-6.12;71.94;100332.55;130530;1095;23647;-63
2020/12/10 05:49:21;;;;;;;36.97;15.40;;;;;;;-6.13;73.16;100326.39;130379;1089;23223;-63
2020/12/10 05:51:51;;;;;;;53.73;19.63;;;;;;;-6.11;72.68;100335.06;130528;1095;23216;-63
2020/12/10 05:54:19;;;;;;;23.60;10.00;;;;;;;-6.09;73.19;100341.09;130390;1090;23155;-63
2020/12/10 05:56:56;;;;;;;21.03;10.27;;;;;;;-6.04;72.50;100332.70;130513;1089;23261;-63
2020/12/10 05:59:29;;;;;;;18.50;8.90;;;;;;;-5.98;73.01;100331.35;130441;1096;23219;-63
2020/12/10 06:01:57;;;;;;;18.03;8.10;;;;;;;-5.94;72.16;100332.77;130492;1090;23166;-63
2020/12/10 06:04:25;;;;;;;19.53;8.07;;;;;;;-5.89;73.17;100325.23;130554;1090;23232;-63
2020/12/10 06:06:53;;;;;;;20.87;9.60;;;;;;;-5.83;73.35;100329.99;130360;1089;23278;-63
2020/12/10 06:09:20;;;;;;;22.40;9.80;;;;;;;-5.79;72.47;100326.11;130501;1089;23150;-63
2020/12/10 06:11:48;;;;;;;19.77;7.97;;;;;;;-5.77;73.94;100324.16;130397;1090;23199;-63
2020/12/10 06:14:16;;;;;;;28.97;11.07;;;;;;;-5.73;72.88;100322.90;130498;1089;23166;-63
2020/12/10 06:16:43;;;;;;;26.33;10.07;;;;;;;-5.85;72.88;100295.63;130369;1089;23172;-63
2020/12/10 06:19:13;;;;;;;22.43;9.77;;;;;;;-5.73;73.03;100310.47;130508;1090;23203;-64
2020/12/10 06:21:43;;;;;;;24.37;10.00;;;;;;;-5.74;73.57;100305.30;130384;1090;24629;-63
2020/12/10 06:24:25;;;;;;;19.33;9.57;;;;;;;-5.74;73.43;100308.79;130520;1090;23845;-63
2020/12/10 06:26:57;;;;;;;18.63;8.50;;;;;;;-5.72;74.34;100306.00;130380;1089;23944;-63
2020/12/10 06:29:30;;;;;;;20.37;9.07;;;;;;;-5.72;73.97;100312.15;130511;1090;23827;-63
2020/12/10 06:31:59;;;;;;;22.57;9.43;;;;;;;-5.70;73.06;100315.52;130365;1090;23135;-63
2020/12/10 06:34:35;;;;;;;19.23;9.60;;;;;;;-5.67;74.21;100306.45;130527;1090;23308;-64
2020/12/10 06:37:25;;;;;;;19.27;8.63;;;;;;;-5.63;74.27;100313.17;130377;1090;24181;-63
2020/12/10 06:40:01;;;;;;;16.27;8.27;;;;;;;-5.62;73.22;100306.02;130511;1095;23204;-63
2020/12/10 06:42:46;;;;;;;17.30;9.00;;;;;;;-5.60;74.28;100298.77;130353;1090;23166;-63
2020/12/10 06:45:35;;;;;;;19.07;9.13;;;;;;;-5.56;74.28;100292.22;130498;1090;23191;-63
2020/12/10 06:48:07;;;;;;;26.77;9.27;;;;;;;-5.56;74.58;100282.44;130423;1089;23201;-63
2020/12/10 06:50:39;;;;;;;18.10;8.33;;;;;;;-5.55;74.42;100273.50;130522;1090;23828;-61
2020/12/10 06:53:08;;;;;;;19.37;10.17;;;;;;;-5.55;74.85;100284.13;130351;1089;23224;-62
2020/12/10 06:55:58;;;;;;;17.63;9.33;;;;;;;-5.54;74.43;100287.62;130526;1089;23179;-64
2020/12/10 06:58:35;;;;;;;30.50;9.67;;;;;;;-5.51;74.76;100293.50;130344;1089;24091;-64
2020/12/10 07:01:34;;;;;;;31.07;10.13;;;;;;;-5.48;75.12;100287.09;130498;1089;23208;-63
2020/12/10 07:04:31;;;;;;;27.42;11.00;;;;;;;-5.47;75.15;100275.46;130391;1089;23139;-63
2020/12/10 07:07:15;;;;;;;23.00;10.10;;;;;;;-5.45;75.06;100292.09;130529;1096;23258;-63
2020/12/10 07:09:45;;;;;;;23.67;10.67;;;;;;;-5.44;74.49;100288.47;130496;1090;23163;-65
2020/12/10 07:12:26;;;;;;;18.83;10.03;;;;;;;-5.41;74.17;100274.92;130507;1090;23892;-61
2020/12/10 07:15:16;;;;;;;19.73;9.43;;;;;;;-5.39;73.75;100280.94;130546;1095;23273;-63
2020/12/10 07:17:47;;;;;;;27.50;9.90;;;;;;;-5.38;75.35;100278.16;130376;1090;23837;-63
2020/12/10 07:20:26;;;;;;;21.57;9.37;;;;;;;-5.34;74.55;100279.53;130486;1089;23823;-62
2020/12/10 07:22:54;;;;;;;23.50;9.87;;;;;;;-5.32;75.60;100289.19;130337;1095;23232;-63
2020/12/10 07:25:22;;;;;;;26.57;11.97;;;;;;;-5.34;74.33;100276.88;130491;1089;23232;-62
2020/12/10 07:27:50;;;;;;;22.67;10.60;;;;;;;-5.32;74.77;100276.75;130467;1089;24426;-63
2020/12/10 07:30:18;;;;;;;22.93;9.97;;;;;;;-5.40;74.56;100263.33;130395;1089;24631;-63
2020/12/10 07:32:46;;;;;;;24.70;10.00;;;;;;;-5.26;76.02;100278.02;130481;1089;23235;-63
2020/12/10 07:35:14;;;;;;;19.73;10.03;;;;;;;-5.23;75.01;100275.94;130358;1089;23163;-63
2020/12/10 07:37:41;;;;;;;15.37;8.97;;;;;;;-5.21;75.91;100273.14;130510;1088;23179;-63
2020/12/10 07:41:38;;;;;;;20.40;9.93;;;;;;;-5.18;75.16;100273.68;125562;1093;24825;-64
2020/12/10 07:44:06;;;;;;;21.17;9.73;;;;;;;-5.15;74.75;100276.06;129822;1100;23210;-64
2020/12/10 07:46:36;;;;;;;26.23;10.73;;;;;;;-5.16;75.67;100282.35;129982;1093;23212;-64
2020/12/10 07:49:04;;;;;;;18.00;9.30;;;;;;;-5.17;75.88;100285.98;129867;1093;23169;-64
2020/12/10 07:51:31;;;;;;;21.37;8.83;;;;;;;-5.20;75.13;100274.83;129969;1100;23258;-63
2020/12/10 07:54:03;;;;;;;23.07;9.97;;;;;;;-5.23;75.12;100278.59;129869;1093;23164;-63
2020/12/10 07:56:31;;;;;;;19.57;10.17;;;;;;;-5.22;75.17;100274.95;130073;1099;23240;-66
2020/12/10 07:59:02;;;;;;;22.30;10.47;;;;;;;-5.22;75.37;100274.13;129977;1093;23235;-63
2020/12/10 08:01:40;;;;;;;24.30;10.50;;;;;;;-5.22;75.58;100266.99;129990;1093;23165;-64
2020/12/10 08:04:16;;;;;;;28.27;10.70;;;;;;;-5.23;75.21;100265.31;130058;1100;24740;-63
2020/12/10 08:06:44;;;;;;;24.30;8.90;;;;;;;-5.25;75.98;100259.30;129941;1093;24927;-63
2020/12/10 08:09:12;;;;;;;27.87;10.83;;;;;;;-5.26;76.23;100260.27;129981;1093;23182;-64
2020/12/10 08:11:53;;;;;;;23.97;10.33;;;;;;;-5.26;76.08;100256.77;129820;1099;23187;-64
2020/12/10 08:14:24;;;;;;;22.50;10.97;;;;;;;-5.25;76.38;100251.33;129999;1099;23160;-63
2020/12/10 08:16:52;;;;;;;24.50;10.83;;;;;;;-5.24;75.83;100245.03;129956;1093;23226;-64
2020/12/10 08:19:27;;;;;;;25.40;11.63;;;;;;;-5.23;75.83;100243.22;130028;1100;24265;-64
2020/12/10 08:21:59;;;;;;;26.87;10.73;;;;;;;-5.21;75.59;100243.92;129925;1093;23283;-64
2020/12/10 08:24:43;;;;;;;19.17;9.87;;;;;;;-5.25;76.20;100207.99;130113;1093;24169;-63
2020/12/10 08:27:12;;;;;;;21.00;11.27;;;;;;;-5.13;75.41;100218.33;129892;1093;23165;-63
2020/12/10 08:29:39;;;;;;;24.00;10.93;;;;;;;-5.10;76.32;100230.50;129991;1092;23211;-63
2020/12/10 08:32:11;;;;;;;26.57;11.70;;;;;;;-5.06;76.20;100222.11;129901;1093;23203;-63
2020/12/10 08:34:39;;;;;;;22.83;11.43;;;;;;;-5.01;75.93;100232.30;129924;1093;23233;-64
2020/12/10 08:37:10;;;;;;;26.30;10.17;;;;;;;-4.99;75.48;100225.87;129818;1093;23238;-63
2020/12/10 08:39:39;;;;;;;19.90;10.50;;;;;;;-4.98;74.86;100234.68;130006;1100;23203;-63
2020/12/10 08:42:07;;;;;;;20.27;10.07;;;;;;;-4.99;75.27;100220.55;129847;1093;23220;-63
2020/12/10 08:44:49;;;;;;;21.67;9.97;;;;;;;-4.99;74.78;100233.00;129963;1093;23163;-63
2020/12/10 08:47:34;;;;;;;31.70;10.75;;;;;;;-5.02;74.74;100227.96;129859;1093;23165;-62
2020/12/10 08:50:22;;;;;;;25.33;9.97;;;;;;;-5.06;74.64;100224.77;129990;1093;23228;-62
2020/12/10 08:53:01;;;;;;;28.30;11.17;;;;;;;-5.05;74.32;100228.27;129867;1093;24629;-62
2020/12/10 08:55:36;;;;;;;21.75;11.00;;;;;;;-5.02;75.55;100236.77;129364;1100;23380;-62
2020/12/10 08:58:07;;;;;;;18.48;8.43;;;;;;;-4.98;74.36;100226.71;125798;1093;23290;-61
2020/12/10 09:00:38;;;;;;;25.07;9.83;;;;;;;-4.96;75.39;100226.57;130238;1098;23200;-61
2020/12/10 09:03:06;;;;;;;24.67;10.80;;;;;;;-4.96;74.76;100224.75;130117;1093;23850;-62
2020/12/10 09:05:33;;;;;;;22.53;10.90;;;;;;;-4.99;75.19;100220.55;130240;1092;23220;-62
2020/12/10 09:08:01;;;;;;;21.27;10.67;;;;;;;-4.98;74.34;100216.08;130095;1099;23275;-62
2020/12/10 09:10:29;;;;;;;23.17;10.07;;;;;;;-4.97;75.18;100215.10;130223;1093;23269;-62
2020/12/10 09:12:57;;;;;;;28.57;10.83;;;;;;;-4.96;74.58;100211.47;130091;1093;23167;-62
2020/12/10 09:15:42;;;;;;;18.87;9.87;;;;;;;-4.94;74.16;100217.48;130176;1099;23205;-62
2020/12/10 09:18:14;;;;;;;29.87;11.63;;;;;;;-4.94;74.72;100219.30;130080;1093;23151;-62
2020/12/10 09:20:45;;;;;;;27.05;11.85;;;;;;;-4.93;75.63;100211.19;130266;1093;23188;-62
2020/12/10 09:23:13;;;;;;;20.40;9.57;;;;;;;-4.92;74.65;100204.05;130167;1093;23305;-63
2020/12/10 09:25:40;;;;;;;23.27;10.70;;;;;;;-4.95;74.12;100202.52;129380;1093;23565;-63
2020/12/10 09:28:10;;;;;;;24.70;10.13;;;;;;;-4.91;74.43;100203.08;130119;1092;23293;-62
2020/12/10 09:30:38;;;;;;;33.73;12.10;;;;;;;-4.91;74.44;100197.77;130175;1093;23796;-62
2020/12/10 09:33:09;;;;;;;24.93;11.17;;;;;;;-4.90;74.63;100208.22;130111;1092;23289;-62
2020/12/10 09:35:36;;;;;;;28.73;10.77;;;;;;;-4.90;74.25;100197.59;130307;1093;23167;-62
2020/12/10 09:38:05;;;;;;;29.07;11.33;;;;;;;-4.86;75.90;100198.99;130080;1093;23182;-63
2020/12/10 09:40:33;;;;;;;24.10;9.67;;;;;;;-4.80;75.25;100202.91;130223;1098;24229;-63
2020/12/10 09:43:00;;;;;;;25.40;12.47;;;;;;;-4.76;75.59;100207.78;130228;1093;23990;-62
2020/12/10 09:45:27;;;;;;;29.53;12.53;;;;;;;-4.74;75.30;100212.95;130135;1093;23176;-62
2020/12/10 09:47:55;;;;;;;19.93;9.93;;;;;;;-4.68;74.45;100212.39;130222;1098;24124;-62
2020/12/10 09:50:25;;;;;;;28.83;13.47;;;;;;;-4.63;75.58;100210.16;130069;1093;23151;-62
2020/12/10 09:53:05;;;;;;;23.97;9.50;;;;;;;-4.61;74.69;100197.53;130262;1098;23274;-62
2020/12/10 09:58:09;;;;;;;28.23;10.73;;;;;;;-4.57;74.80;100204.24;130258;1093;23179;-63
2020/12/10 10:00:39;;;;;;;20.37;10.10;;;;;;;-4.56;75.72;100202.42;130092;1098;23194;-62
2020/12/10 10:03:07;;;;;;;24.03;11.33;;;;;;;-4.55;76.71;100202.28;130102;1093;23232;-62
2020/12/10 10:05:51;;;;;;;29.60;10.43;;;;;;;-4.54;75.69;100189.83;130118;1093;23169;-63
2020/12/10 10:08:22;;;;;;;20.80;10.53;;;;;;;-4.52;75.37;100194.02;130217;1093;23274;-63
2020/12/10 10:10:53;;;;;;;30.23;12.23;;;;;;;-4.50;76.09;100177.92;130067;1093;23144;-62
2020/12/10 10:13:20;;;;;;;22.20;11.13;;;;;;;-4.46;76.20;100177.47;130186;1093;26406;-63
2020/12/10 10:15:48;;;;;;;27.93;11.47;;;;;;;-4.45;76.08;100187.13;130078;1099;23245;-62
2020/12/10 10:18:23;;;;;;;24.20;11.93;;;;;;;-4.41;75.90;100198.31;130252;1093;24232;-62
2020/12/10 10:20:50;;;;;;;19.47;9.30;;;;;;;-4.39;75.77;100175.08;130132;1093;23176;-63
2020/12/10 10:23:19;;;;;;;24.80;11.57;;;;;;;-4.42;76.04;100170.88;130230;1093;23231;-63
2020/12/10 10:25:52;;;;;;;22.50;11.17;;;;;;;-4.39;76.94;100169.75;129938;1093;23247;-63
2020/12/10 10:28:20;;;;;;;26.27;12.20;;;;;;;-4.40;76.65;100163.59;130293;1099;23150;-63
2020/12/10 10:30:51;;;;;;;22.67;11.17;;;;;;;-4.40;76.68;100168.08;130119;1092;23811;-62
2020/12/10 10:33:22;;;;;;;26.67;12.07;;;;;;;-4.39;75.52;100167.94;130229;1098;24173;-63
2020/12/10 10:35:53;;;;;;;25.50;12.63;;;;;;;-4.35;76.53;100166.67;130117;1093;23288;-63
2020/12/10 10:38:21;;;;;;;24.50;11.83;;;;;;;-4.33;76.67;100164.67;130216;1093;23254;-63
2020/12/10 10:40:48;;;;;;;24.90;11.67;;;;;;;-4.32;76.62;100154.87;130083;1098;23346;-63
2020/12/10 10:43:16;;;;;;;26.27;11.17;;;;;;;-4.32;76.36;100160.19;130239;1093;23147;-62
2020/12/10 10:45:43;;;;;;;23.93;10.97;;;;;;;-4.33;76.12;100159.35;130088;1093;24634;-63
2020/12/10 10:48:11;;;;;;;32.97;15.83;;;;;;;-4.35;76.44;100161.34;130207;1099;23162;-63
2020/12/10 10:50:38;;;;;;;29.10;14.83;;;;;;;-4.35;76.20;100169.33;130240;1093;23295;-63
2020/12/10 10:53:06;;;;;;;31.07;15.37;;;;;;;-4.36;76.02;100156.17;130136;1093;24129;-62
2020/12/10 10:55:33;;;;;;;26.40;13.37;;;;;;;-4.36;76.13;100162.33;130243;1093;23221;-63
2020/12/10 10:58:01;;;;;;;36.57;14.73;;;;;;;-4.35;76.09;100155.19;130096;1093;23182;-63
2020/12/10 11:00:29;;;;;;;32.37;14.50;;;;;;;-4.37;76.34;100165.97;130230;1099;23332;-63
2020/12/10 11:03:00;;;;;;;36.77;14.80;;;;;;;-4.34;76.37;100172.83;130051;1093;23657;-63
2020/12/10 11:05:28;;;;;;;45.50;18.87;;;;;;;-4.31;76.70;100175.16;130203;1098;23163;-64
2020/12/10 11:07:57;;;;;;;35.30;16.43;;;;;;;-4.33;76.29;100162.02;130055;1093;23967;-63
2020/12/10 11:10:24;;;;;;;39.83;18.70;;;;;;;-4.32;77.24;100170.83;130202;1093;25792;-63
2020/12/10 11:12:52;;;;;;;32.10;14.70;;;;;;;-4.31;77.20;100168.03;130111;1093;23242;-63
2020/12/10 11:15:20;;;;;;;34.63;16.67;;;;;;;-4.29;76.88;100175.86;130166;1093;23200;-63
2020/12/10 11:17:47;;;;;;;31.30;14.53;;;;;;;-4.29;77.06;100165.22;130081;1093;23292;-63
2020/12/10 11:20:15;;;;;;;35.63;17.57;;;;;;;-4.27;77.36;100172.08;130221;1099;23266;-62
2020/12/10 11:22:42;;;;;;;33.47;15.70;;;;;;;-4.29;77.07;100159.91;130025;1093;23229;-62